Time;durP1;ratioP1;P1;durP2;ratioP2;P2;SDS_P1;SDS_P2;PMS_P1;PMS_P2;Temp;Humidity;BMP_temperature;BMP_pressure;BME280_temperature;BME280_humidity;BME280_pressure;Samples;Min_cycle;Max_cycle;Signal;HPM_P1;HPM_P2
2021/12/11 00:01:48;;;;;;;39.07;18.33;;;3.60;1.00;;;;;;5035611;28;20756;-69
2021/12/11 00:04:19;;;;;;;52.27;17.97;;;3.60;1.00;;;;;;5034741;28;20499;-73
2021/12/11 00:06:52;;;;;;;41.87;18.60;;;3.70;1.00;;;;;;5035326;28;20470;-68
2021/12/11 00:09:22;;;;;;;33.20;19.90;;;3.70;1.00;;;;;;5035311;28;20414;-68
2021/12/11 00:11:55;;;;;;;31.10;17.40;;;3.70;1.00;;;;;;5035334;28;20893;-72
2021/12/11 00:14:23;;;;;;;51.03;19.80;;;3.70;1.00;;;;;;5034048;28;20446;-72
2021/12/11 00:16:50;;;;;;;38.60;17.07;;;3.70;1.00;;;;;;5035161;28;20465;-68
2021/12/11 00:19:21;;;;;;;27.63;16.10;;;3.70;1.00;;;;;;5035145;28;20398;-69
2021/12/11 00:21:48;;;;;;;35.17;18.63;;;3.70;1.00;;;;;;5035092;28;20405;-72
2021/12/11 00:24:25;;;;;;;31.53;16.37;;;3.70;1.00;;;;;;5033281;28;20414;-68
2021/12/11 00:27:13;;;;;;;27.40;17.07;;;3.70;1.00;;;;;;5034892;28;20451;-68
2021/12/11 00:29:39;;;;;;;32.50;16.57;;;3.70;1.00;;;;;;5035046;28;20440;-68
2021/12/11 00:32:27;;;;;;;33.50;15.83;;;3.70;1.00;;;;;;5032677;28;20513;-68
2021/12/11 00:34:59;;;;;;;44.33;17.70;;;3.70;1.00;;;;;;5034903;28;20485;-68
2021/12/11 00:37:26;;;;;;;40.03;17.57;;;3.70;1.00;;;;;;5034897;28;20400;-73
2021/12/11 00:39:55;;;;;;;33.30;17.03;;;3.70;1.00;;;;;;5035023;28;20403;-73
2021/12/11 00:42:23;;;;;;;44.23;18.80;;;3.70;1.00;;;;;;5034055;28;20669;-69
2021/12/11 00:44:53;;;;;;;33.23;16.27;;;3.70;1.00;;;;;;5034723;28;20821;-72
2021/12/11 00:47:24;;;;;;;39.37;17.77;;;3.70;1.00;;;;;;5034632;28;20526;-73
2021/12/11 00:50:11;;;;;;;27.73;15.50;;;3.70;1.00;;;;;;5034032;28;20441;-73
2021/12/11 00:52:54;;;;;;;28.40;14.97;;;3.70;1.00;;;;;;5033591;28;20423;-72
2021/12/11 00:55:28;;;;;;;25.70;13.70;;;3.60;1.00;;;;;;5034495;28;20479;-68
2021/12/11 00:58:17;;;;;;;29.73;15.87;;;3.60;1.00;;;;;;5034512;28;20888;-70
2021/12/11 01:00:51;;;;;;;24.27;14.60;;;3.60;1.00;;;;;;5034403;28;20418;-73
2021/12/11 01:03:26;;;;;;;27.90;15.80;;;3.60;1.00;;;;;;5033600;28;20416;-73
2021/12/11 01:05:56;;;;;;;42.47;16.13;;;3.50;1.00;;;;;;5034446;28;20418;-69
2021/12/11 01:08:32;;;;;;;25.73;15.17;;;3.50;1.00;;;;;;5033885;28;20412;-73
2021/12/11 01:11:06;;;;;;;31.97;15.73;;;3.50;1.00;;;;;;5034259;28;20398;-67
2021/12/11 01:13:39;;;;;;;28.83;17.97;;;3.50;1.00;;;;;;5033330;28;20911;-68
2021/12/11 01:16:12;;;;;;;29.70;15.40;;;3.60;1.00;;;;;;5034059;28;20940;-67
2021/12/11 01:18:41;;;;;;;45.77;21.83;;;3.60;1.00;;;;;;5033935;28;20396;-71
2021/12/11 01:21:59;;;;;;;37.53;17.03;;;3.60;1.00;;;;;;5034079;28;20400;-68
2021/12/11 01:26:35;;;;;;;26.03;14.77;;;3.60;1.00;;;;;;5034039;28;20457;-72
2021/12/11 01:29:01;;;;;;;29.60;15.27;;;3.70;1.00;;;;;;5033997;28;20401;-69
2021/12/11 01:31:28;;;;;;;33.13;15.17;;;3.70;1.00;;;;;;5033914;28;20464;-69
2021/12/11 01:33:55;;;;;;;24.87;13.33;;;3.70;1.00;;;;;;5032500;28;20444;-72
2021/12/11 01:36:22;;;;;;;30.53;13.60;;;3.60;1.00;;;;;;5032644;28;21036;-72
2021/12/11 01:38:52;;;;;;;29.10;15.23;;;3.60;1.00;;;;;;5033790;28;20806;-68
2021/12/11 01:41:21;;;;;;;27.00;15.63;;;3.60;1.00;;;;;;5033698;28;20760;-68
2021/12/11 01:43:52;;;;;;;28.40;14.77;;;3.60;1.00;;;;;;5031071;28;20979;-71
2021/12/11 01:46:25;;;;;;;30.67;14.00;;;3.50;1.00;;;;;;5032401;28;20863;-68
2021/12/11 01:49:00;;;;;;;34.30;15.00;;;3.60;1.00;;;;;;5033666;28;20411;-68
2021/12/11 01:51:33;;;;;;;24.00;13.93;;;3.60;1.00;;;;;;5033547;28;20430;-72
2021/12/11 01:54:20;;;;;;;25.60;14.50;;;3.60;1.00;;;;;;5032668;28;20482;-73
2021/12/11 01:56:59;;;;;;;23.03;13.00;;;3.60;1.00;;;;;;5033355;28;20968;-74
2021/12/11 01:59:34;;;;;;;30.63;12.90;;;3.70;1.00;;;;;;5033405;28;20442;-68
2021/12/11 02:02:13;;;;;;;34.47;15.40;;;3.70;1.00;;;;;;5032131;28;20386;-72
2021/12/11 02:04:42;;;;;;;30.87;14.17;;;3.70;1.00;;;;;;5033328;28;20393;-72
2021/12/11 02:07:14;;;;;;;27.03;14.80;;;3.70;1.00;;;;;;5033363;28;20418;-68
2021/12/11 02:09:43;;;;;;;27.20;13.20;;;3.70;1.00;;;;;;5033374;28;20400;-73
2021/12/11 02:12:12;;;;;;;26.03;15.17;;;3.60;1.00;;;;;;5032388;28;20755;-68
2021/12/11 02:14:44;;;;;;;31.33;14.03;;;3.60;1.00;;;;;;5031883;28;21001;-73
2021/12/11 02:17:36;;;;;;;26.47;14.80;;;3.60;1.00;;;;;;5032794;28;20504;-69
2021/12/11 02:20:06;;;;;;;33.07;15.17;;;3.60;1.00;;;;;;5025881;28;20427;-73
2021/12/11 02:22:37;;;;;;;27.27;12.73;;;3.60;1.00;;;;;;5032293;28;20406;-69
2021/12/11 02:25:10;;;;;;;22.43;13.17;;;3.60;1.00;;;;;;5033148;28;20413;-74
2021/12/11 02:27:47;;;;;;;21.57;14.03;;;3.60;1.00;;;;;;5032978;28;20414;-73
2021/12/11 02:30:27;;;;;;;19.57;12.80;;;3.50;1.00;;;;;;5033005;28;20410;-68
2021/12/11 02:33:07;;;;;;;27.13;14.80;;;3.60;1.00;;;;;;5032240;28;20967;-68
2021/12/11 02:35:42;;;;;;;18.50;11.10;;;3.60;1.00;;;;;;5032209;28;20811;-73
2021/12/11 02:38:33;;;;;;;38.57;14.53;;;3.60;1.00;;;;;;5032834;28;20961;-67
2021/12/11 02:41:08;;;;;;;33.70;13.87;;;3.60;1.00;;;;;;5033057;28;20409;-68
2021/12/11 02:43:40;;;;;;;29.27;12.93;;;3.70;1.00;;;;;;5031876;28;20517;-72
2021/12/11 02:46:18;;;;;;;36.87;13.10;;;3.60;1.00;;;;;;5034873;28;20422;-73
2021/12/11 02:48:57;;;;;;;26.17;13.03;;;3.70;1.00;;;;;;5035970;28;20399;-73
2021/12/11 02:51:35;;;;;;;27.57;14.03;;;3.70;1.00;;;;;;5036847;28;20500;-68
2021/12/11 02:54:07;;;;;;;21.87;12.07;;;3.60;1.00;;;;;;5035400;28;20974;-69
2021/12/11 02:56:38;;;;;;;29.23;14.10;;;3.60;1.00;;;;;;5036825;28;20424;-69
2021/12/11 02:59:13;;;;;;;33.00;13.10;;;3.60;1.00;;;;;;5036978;28;20756;-68
2021/12/11 03:01:47;;;;;;;23.97;15.10;;;3.50;1.00;;;;;;5036850;28;20481;-67
2021/12/11 03:04:35;;;;;;;20.00;12.20;;;3.50;1.00;;;;;;5036060;28;20407;-73
2021/12/11 03:07:05;;;;;;;29.80;14.23;;;3.40;1.00;;;;;;5036675;28;20769;-74
2021/12/11 03:09:33;;;;;;;25.63;14.10;;;3.50;1.00;;;;;;5036647;28;20402;-69
2021/12/11 03:12:00;;;;;;;21.83;11.70;;;3.40;1.00;;;;;;5035394;28;20476;-73
2021/12/11 03:14:28;;;;;;;31.37;13.60;;;3.40;1.00;;;;;;5036722;28;20448;-68
2021/12/11 03:16:54;;;;;;;28.20;14.33;;;3.50;1.00;;;;;;5036461;28;20461;-71
2021/12/11 03:19:27;;;;;;;20.73;11.77;;;3.40;1.00;;;;;;5036536;28;20390;-73
2021/12/11 03:21:54;;;;;;;26.77;11.40;;;3.50;1.00;;;;;;5036083;28;20844;-68
2021/12/11 03:24:20;;;;;;;26.57;13.30;;;3.50;1.00;;;;;;5034754;28;20458;-72
2021/12/11 03:26:48;;;;;;;22.97;12.17;;;3.50;1.00;;;;;;5036267;28;20501;-68
2021/12/11 03:29:15;;;;;;;21.67;12.23;;;3.50;1.00;;;;;;5035933;28;20751;-68
2021/12/11 03:31:41;;;;;;;27.40;14.50;;;3.50;1.00;;;;;;5036181;28;20857;-69
2021/12/11 03:34:10;;;;;;;24.00;13.17;;;3.50;1.00;;;;;;5035240;28;20843;-68
2021/12/11 03:36:37;;;;;;;28.90;15.33;;;3.50;1.00;;;;;;5036143;28;20415;-71
2021/12/11 03:39:13;;;;;;;16.23;11.27;;;3.50;1.00;;;;;;5036259;28;20755;-73
2021/12/11 03:41:40;;;;;;;28.37;13.57;;;3.50;1.00;;;;;;5036152;28;20395;-69
2021/12/11 03:44:07;;;;;;;20.73;12.60;;;3.40;1.00;;;;;;5035099;28;20767;-68
2021/12/11 03:46:33;;;;;;;25.43;12.23;;;3.40;1.00;;;;;;5035927;28;20439;-68
2021/12/11 03:49:05;;;;;;;19.53;11.33;;;3.40;1.00;;;;;;5035764;28;20402;-74
2021/12/11 03:51:38;;;;;;;27.37;14.60;;;3.40;1.00;;;;;;5035642;28;20221;-73
2021/12/11 03:54:07;;;;;;;25.50;13.50;;;3.30;1.00;;;;;;5034792;28;20464;-71
2021/12/11 03:56:33;;;;;;;28.33;13.40;;;3.10;1.00;;;;;;5035353;28;20818;-69
2021/12/11 03:59:00;;;;;;;27.33;12.40;;;3.20;1.00;;;;;;5034843;28;20510;-68
2021/12/11 04:01:32;;;;;;;24.07;11.77;;;3.30;1.00;;;;;;5035661;28;20388;-73
2021/12/11 04:04:02;;;;;;;32.47;13.43;;;3.20;1.00;;;;;;5034715;28;20824;-69
2021/12/11 04:06:28;;;;;;;21.07;10.87;;;3.30;1.00;;;;;;5034311;28;20475;-69
2021/12/11 04:08:55;;;;;;;18.03;11.10;;;3.30;1.00;;;;;;5035335;28;20507;-73
2021/12/11 04:11:26;;;;;;;23.33;11.87;;;3.40;1.00;;;;;;5035111;28;20410;-71
2021/12/11 04:13:59;;;;;;;24.70;11.37;;;3.30;1.00;;;;;;5034510;28;20407;-68
2021/12/11 04:16:25;;;;;;;24.20;12.17;;;3.30;1.00;;;;;;5035341;28;20428;-73
2021/12/11 04:18:51;;;;;;;25.77;14.80;;;3.40;1.00;;;;;;5035429;28;20764;-74
2021/12/11 04:21:16;;;;;;;26.43;12.43;;;3.40;1.00;;;;;;5035363;28;20414;-68
2021/12/11 04:23:42;;;;;;;25.93;15.57;;;3.40;1.00;;;;;;5034498;28;20164;-68
2021/12/11 04:26:09;;;;;;;32.23;13.40;;;3.30;1.00;;;;;;5035133;28;20647;-67
2021/12/11 04:28:37;;;;;;;18.53;13.40;;;3.20;1.00;;;;;;5034585;28;20945;-68
2021/12/11 04:31:07;;;;;;;29.37;14.10;;;3.20;1.00;;;;;;5035337;28;20430;-73
2021/12/11 04:33:38;;;;;;;25.90;11.20;;;3.20;1.00;;;;;;5034320;28;20400;-74
2021/12/11 04:36:08;;;;;;;33.67;14.17;;;3.30;1.00;;;;;;5035016;28;20422;-70
2021/12/11 04:38:34;;;;;;;30.77;11.87;;;3.40;1.00;;;;;;5035010;28;20393;-71
2021/12/11 04:41:00;;;;;;;30.57;12.47;;;3.30;1.00;;;;;;5035067;28;20806;-68
2021/12/11 04:43:26;;;;;;;26.67;11.30;;;3.20;1.00;;;;;;5032803;28;20657;-68
2021/12/11 04:45:59;;;;;;;33.83;13.80;;;3.00;1.00;;;;;;5034427;28;20425;-73
2021/12/11 04:48:43;;;;;;;32.10;11.87;;;3.00;1.00;;;;;;5034711;28;20431;-68
2021/12/11 04:51:24;;;;;;;16.53;10.50;;;3.10;1.00;;;;;;5034865;28;20461;-68
2021/12/11 05:01:51;;;;;;;19.90;10.57;;;3.20;1.00;;;;;;5034617;28;20413;-73
2021/12/11 05:09:58;;;;;;;26.07;14.07;;;3.20;1.00;;;;;;5032698;28;20183;-68
2021/12/11 05:12:44;;;;;;;23.03;12.70;;;3.10;1.00;;;;;;5032054;28;20411;-74
2021/12/11 05:15:33;;;;;;;22.40;11.53;;;3.20;1.00;;;;;;5034336;28;20452;-68
2021/12/11 05:18:00;;;;;;;18.43;11.20;;;3.10;1.00;;;;;;5034334;28;20403;-74
2021/12/11 05:20:30;;;;;;;20.50;10.90;;;3.10;1.00;;;;;;5034297;28;20525;-72
2021/12/11 05:22:56;;;;;;;25.07;12.10;;;3.10;1.00;;;;;;5032630;28;20457;-69
2021/12/11 05:25:21;;;;;;;22.00;12.00;;;3.00;1.00;;;;;;5034070;28;20453;-74
2021/12/11 05:27:47;;;;;;;25.83;11.97;;;3.10;1.00;;;;;;5034249;28;20410;-73
2021/12/11 05:30:25;;;;;;;16.53;11.00;;;3.10;1.00;;;;;;5034071;28;20176;-73
2021/12/11 05:32:51;;;;;;;24.77;11.87;;;3.10;1.00;;;;;;5033002;28;20246;-71
2021/12/11 05:35:18;;;;;;;22.20;11.93;;;3.10;1.00;;;;;;5033799;28;20445;-68
2021/12/11 05:37:44;;;;;;;20.83;12.77;;;3.10;1.00;;;;;;5034043;28;20472;-68
2021/12/11 05:40:15;;;;;;;28.17;13.17;;;3.10;1.00;;;;;;5033245;28;20402;-74
2021/12/11 05:42:41;;;;;;;16.40;11.07;;;3.10;1.00;;;;;;5032845;28;20456;-73
2021/12/11 05:45:07;;;;;;;33.60;13.73;;;3.10;1.00;;;;;;5033760;28;20489;-73
2021/12/11 05:47:33;;;;;;;25.13;11.07;;;3.10;1.00;;;;;;5032344;28;20594;-68
2021/12/11 05:49:59;;;;;;;22.17;12.50;;;3.10;1.00;;;;;;5033480;28;20446;-68
2021/12/11 05:52:25;;;;;;;19.13;10.80;;;3.10;1.00;;;;;;5032824;28;20463;-67
2021/12/11 05:54:52;;;;;;;27.70;13.47;;;3.00;1.00;;;;;;5033410;28;20192;-70
2021/12/11 05:57:21;;;;;;;23.70;11.80;;;3.00;1.00;;;;;;5033001;28;20489;-68
2021/12/11 05:59:49;;;;;;;26.50;12.80;;;3.00;1.00;;;;;;5032304;28;20406;-68
2021/12/11 06:02:20;;;;;;;19.80;12.27;;;3.00;1.00;;;;;;5032480;28;20398;-67
2021/12/11 06:04:49;;;;;;;28.20;12.37;;;2.90;1.00;;;;;;5033346;28;20415;-67
2021/12/11 06:07:17;;;;;;;21.10;11.93;;;2.90;1.00;;;;;;5033182;28;20454;-69
2021/12/11 06:09:46;;;;;;;19.40;12.80;;;2.80;1.00;;;;;;5033500;28;20791;-68
2021/12/11 06:12:14;;;;;;;14.13;9.57;;;2.80;1.00;;;;;;5032402;28;20406;-71
2021/12/11 06:14:42;;;;;;;26.90;12.17;;;2.70;1.00;;;;;;5032533;28;20806;-68
2021/12/11 06:17:11;;;;;;;20.03;10.80;;;2.70;1.00;;;;;;5033209;28;20441;-73
2021/12/11 06:19:37;;;;;;;22.23;10.90;;;2.70;1.00;;;;;;5033001;28;20398;-68
2021/12/11 06:22:04;;;;;;;27.77;12.90;;;2.60;1.00;;;;;;5032358;28;20394;-68
2021/12/11 06:24:30;;;;;;;19.17;11.13;;;2.60;1.00;;;;;;5033399;28;20410;-72
2021/12/11 06:26:58;;;;;;;19.80;12.17;;;2.60;1.00;;;;;;5033020;28;20430;-73
2021/12/11 06:29:25;;;;;;;23.93;14.00;;;2.60;1.00;;;;;;5032940;28;20489;-67
2021/12/11 06:31:51;;;;;;;19.17;11.53;;;2.50;1.00;;;;;;5032995;28;20406;-71
2021/12/11 06:34:18;;;;;;;21.40;10.87;;;2.40;1.00;;;;;;5031906;28;20457;-68
2021/12/11 06:36:45;;;;;;;16.37;10.93;;;2.40;1.00;;;;;;5032726;28;20449;-67
2021/12/11 06:39:15;;;;;;;24.33;12.30;;;2.40;1.00;;;;;;5033056;28;20407;-70
2021/12/11 06:41:44;;;;;;;24.17;11.37;;;2.40;1.00;;;;;;5032909;28;20399;-73
2021/12/11 06:44:10;;;;;;;21.87;10.60;;;2.30;1.00;;;;;;5032056;28;20394;-67
2021/12/11 06:46:37;;;;;;;22.53;10.10;;;2.30;1.00;;;;;;5032792;28;20815;-72
2021/12/11 06:49:04;;;;;;;16.10;9.97;;;2.30;1.00;;;;;;5033123;28;20839;-68
2021/12/11 06:51:31;;;;;;;19.03;10.10;;;2.30;1.00;;;;;;5032769;28;20895;-73
2021/12/11 06:54:01;;;;;;;19.63;9.73;;;2.20;1.00;;;;;;5031542;28;20416;-67
2021/12/11 06:56:27;;;;;;;21.17;11.97;;;2.20;1.00;;;;;;5032475;28;20418;-68
2021/12/11 06:58:54;;;;;;;24.43;10.70;;;2.20;1.00;;;;;;5032843;28;20394;-72
2021/12/11 07:01:22;;;;;;;22.93;10.57;;;2.20;1.00;;;;;;5032691;28;20402;-70
2021/12/11 07:03:48;;;;;;;19.83;11.53;;;2.20;1.00;;;;;;5031901;28;20402;-73
2021/12/11 07:06:15;;;;;;;22.47;10.90;;;2.20;1.00;;;;;;5032571;28;20422;-74
2021/12/11 07:08:41;;;;;;;21.30;11.60;;;2.30;1.00;;;;;;5032636;28;20405;-68
2021/12/11 07:11:10;;;;;;;25.07;12.10;;;2.30;1.00;;;;;;5031932;28;20410;-74
2021/12/11 07:13:37;;;;;;;22.37;12.10;;;2.40;1.00;;;;;;5031719;28;20402;-72
2021/12/11 07:16:03;;;;;;;14.93;12.60;;;2.50;1.00;;;;;;5032279;28;20457;-67
2021/12/11 07:18:31;;;;;;;25.43;11.63;;;2.50;1.00;;;;;;5032800;28;20406;-74
2021/12/11 07:20:57;;;;;;;15.67;10.00;;;2.40;1.00;;;;;;5032261;28;20418;-67
2021/12/11 07:23:23;;;;;;;30.73;14.03;;;2.40;1.00;;;;;;5029475;28;20918;-74
2021/12/11 07:26:04;;;;;;;28.37;11.07;;;2.40;1.00;;;;;;5024732;28;20442;-66
2021/12/11 07:28:29;;;;;;;21.90;11.07;;;2.40;1.00;;;;;;5032334;28;20418;-74
2021/12/11 07:30:57;;;;;;;20.33;12.43;;;2.40;1.00;;;;;;5030772;28;20426;-74
2021/12/11 07:33:23;;;;;;;31.37;10.03;;;2.40;1.00;;;;;;5035434;28;20171;-67
2021/12/11 07:35:50;;;;;;;17.63;10.00;;;2.30;1.00;;;;;;5035787;28;20523;-66
2021/12/11 07:38:17;;;;;;;20.47;11.23;;;2.30;1.00;;;;;;5036162;28;20395;-71
2021/12/11 07:40:46;;;;;;;18.13;10.07;;;2.30;1.00;;;;;;5035928;28;20410;-67
2021/12/11 07:43:13;;;;;;;22.90;11.30;;;2.30;1.00;;;;;;5035422;28;20764;-71
2021/12/11 07:45:39;;;;;;;18.27;10.40;;;2.30;1.00;;;;;;5035713;28;21001;-66
2021/12/11 07:48:05;;;;;;;22.70;11.37;;;2.30;1.00;;;;;;5035355;28;20410;-67
2021/12/11 07:50:32;;;;;;;17.40;11.33;;;2.30;1.00;;;;;;5035676;28;20195;-69
2021/12/11 07:52:58;;;;;;;15.03;10.60;;;2.40;1.00;;;;;;5035000;28;20449;-73
2021/12/11 07:55:25;;;;;;;15.73;9.73;;;2.30;1.00;;;;;;5035466;28;20465;-67
2021/12/11 07:57:51;;;;;;;18.33;11.00;;;2.40;1.00;;;;;;5035905;28;20418;-74
2021/12/11 08:00:20;;;;;;;26.30;11.17;;;2.40;1.00;;;;;;5035363;28;20421;-74
2021/12/11 08:02:47;;;;;;;23.07;11.00;;;2.40;1.00;;;;;;5034822;28;20456;-67
2021/12/11 08:05:13;;;;;;;19.80;12.43;;;2.50;1.00;;;;;;5034371;28;20495;-74
2021/12/11 08:07:40;;;;;;;19.60;10.97;;;2.60;1.00;;;;;;5033544;28;20429;-73
2021/12/11 08:10:09;;;;;;;22.37;11.70;;;2.60;1.00;;;;;;5033798;28;20752;-70
2021/12/11 08:12:35;;;;;;;16.37;10.67;;;2.60;1.00;;;;;;5015004;28;20403;-69
2021/12/11 08:15:01;;;;;;;22.10;12.17;;;2.70;1.00;;;;;;5019166;28;20957;-68
2021/12/11 08:17:27;;;;;;;20.03;14.10;;;2.70;1.00;;;;;;5035364;28;20599;-74
2021/12/11 08:19:52;;;;;;;22.47;11.87;;;2.70;1.00;;;;;;5033685;28;20450;-69
2021/12/11 08:22:18;;;;;;;22.93;10.37;;;2.80;1.00;;;;;;5033146;28;20683;-68
2021/12/11 08:24:44;;;;;;;22.90;9.77;;;2.70;1.00;;;;;;5034043;28;20179;-69
2021/12/11 08:27:15;;;;;;;28.17;12.67;;;2.80;1.00;;;;;;5033742;28;20204;-74
2021/12/11 08:29:43;;;;;;;16.30;10.30;;;2.80;1.00;;;;;;5034963;28;20702;-71
2021/12/11 08:32:09;;;;;;;19.20;10.87;;;2.80;1.00;;;;;;5034149;28;20498;-68
2021/12/11 08:34:36;;;;;;;22.03;12.07;;;2.80;1.00;;;;;;5034626;28;20545;-72
2021/12/11 08:37:03;;;;;;;27.10;11.60;;;2.90;1.00;;;;;;5034825;28;20422;-68
2021/12/11 08:39:30;;;;;;;21.23;12.70;;;2.90;1.00;;;;;;5035087;28;20875;-73
2021/12/11 08:41:59;;;;;;;23.60;11.30;;;2.90;1.00;;;;;;5033217;28;20422;-68
2021/12/11 08:44:25;;;;;;;17.40;10.20;;;3.00;1.00;;;;;;5032851;28;20440;-70
2021/12/11 08:46:58;;;;;;;23.40;10.70;;;3.00;1.00;;;;;;5034673;28;20436;-74
2021/12/11 08:49:27;;;;;;;18.70;9.27;;;3.00;1.00;;;;;;5034699;28;20418;-73
2021/12/11 08:52:10;;;;;;;20.03;9.20;;;3.10;1.00;;;;;;5033420;28;20469;-68
2021/12/11 08:54:37;;;;;;;17.87;11.77;;;3.10;1.00;;;;;;5034693;28;20456;-74
2021/12/11 08:57:08;;;;;;;33.57;13.47;;;3.10;1.00;;;;;;5034602;28;20418;-68
2021/12/11 08:59:42;;;;;;;18.33;12.00;;;3.10;1.00;;;;;;5034680;28;20412;-68
2021/12/11 09:02:40;;;;;;;15.07;11.90;;;3.10;1.00;;;;;;5032250;28;20441;-69
2021/12/11 09:05:20;;;;;;;16.27;9.50;;;3.20;1.00;;;;;;5034295;28;20413;-74
2021/12/11 09:08:05;;;;;;;22.50;11.37;;;3.30;1.00;;;;;;5034463;28;20822;-67
2021/12/11 09:10:38;;;;;;;18.63;8.60;;;3.30;1.00;;;;;;5034450;28;20422;-68
2021/12/11 09:13:10;;;;;;;23.53;9.30;;;3.40;1.00;;;;;;5033497;28;20403;-67
2021/12/11 09:15:59;;;;;;;15.23;9.93;;;3.40;1.00;;;;;;5034269;28;20532;-67
2021/12/11 09:18:34;;;;;;;20.30;9.93;;;3.40;1.00;;;;;;5033608;28;20414;-68
2021/12/11 09:21:05;;;;;;;14.60;9.63;;;3.40;1.00;;;;;;5033563;28;20767;-74
2021/12/11 09:23:52;;;;;;;20.67;8.53;;;3.40;1.00;;;;;;5033326;28;20493;-73
2021/12/11 09:26:28;;;;;;;20.60;9.30;;;3.40;1.00;;;;;;5033947;28;20491;-72
2021/12/11 09:28:59;;;;;;;19.23;8.63;;;3.40;1.00;;;;;;5034092;28;20394;-68
2021/12/11 09:31:39;;;;;;;12.70;7.33;;;3.40;1.00;;;;;;5033980;28;20395;-73
2021/12/11 09:34:27;;;;;;;12.57;9.20;;;3.40;1.00;;;;;;5033049;28;20452;-69
2021/12/11 09:36:57;;;;;;;12.27;8.10;;;3.50;1.00;;;;;;5033186;28;20950;-74
2021/12/11 09:39:57;;;;;;;17.13;8.67;;;3.60;1.00;;;;;;5033896;28;20405;-68
2021/12/11 09:42:22;;;;;;;14.00;6.87;;;3.60;1.00;;;;;;5032165;28;20431;-73
2021/12/11 09:44:59;;;;;;;11.57;6.97;;;3.60;1.00;;;;;;5033714;28;20917;-68
2021/12/11 09:47:35;;;;;;;16.10;7.13;;;3.60;1.00;;;;;;5033797;28;20178;-67
2021/12/11 09:50:09;;;;;;;16.37;8.40;;;3.60;1.00;;;;;;5033796;28;20480;-72
2021/12/11 09:52:37;;;;;;;10.60;7.30;;;3.60;1.00;;;;;;5032862;28;20402;-73
2021/12/11 09:55:17;;;;;;;14.20;7.50;;;3.70;1.00;;;;;;5033055;28;20446;-73
2021/12/11 09:57:46;;;;;;;12.90;7.70;;;3.70;1.00;;;;;;5032943;28;20902;-67
2021/12/11 10:00:31;;;;;;;10.43;7.17;;;3.70;1.00;;;;;;5032175;28;20406;-73
2021/12/11 10:02:57;;;;;;;9.23;7.23;;;3.70;1.00;;;;;;5032533;28;20445;-73
2021/12/11 10:05:37;;;;;;;18.23;9.67;;;3.80;1.00;;;;;;5033519;28;20427;-73
2021/12/11 10:08:31;;;;;;;12.87;7.37;;;3.80;1.00;;;;;;5033339;28;20434;-68
2021/12/11 10:11:36;;;;;;;11.17;8.20;;;3.90;1.00;;;;;;5027935;28;20430;-74
2021/12/11 10:14:08;;;;;;;9.97;6.67;;;3.90;1.00;;;;;;4954681;28;20428;-68
2021/12/11 10:16:55;;;;;;;17.23;7.57;;;4.00;1.00;;;;;;4988890;28;20689;-73
2021/12/11 10:19:29;;;;;;;11.17;7.43;;;4.00;1.00;;;;;;5019368;28;20748;-68
2021/12/11 10:21:59;;;;;;;12.20;7.33;;;4.00;1.00;;;;;;5032615;28;20450;-68
2021/12/11 10:24:27;;;;;;;17.60;9.00;;;4.20;1.00;;;;;;5032734;28;20480;-74
2021/12/11 10:26:54;;;;;;;14.00;8.53;;;4.20;1.00;;;;;;5033072;28;20454;-68
2021/12/11 10:29:20;;;;;;;11.77;9.03;;;4.20;1.00;;;;;;5032976;28;20981;-68
2021/12/11 10:31:53;;;;;;;14.13;8.60;;;4.10;1.00;;;;;;5033118;28;20485;-68
2021/12/11 10:34:22;;;;;;;13.13;8.53;;;4.10;1.00;;;;;;5031581;28;20478;-73
2021/12/11 10:37:07;;;;;;;12.83;8.63;;;4.10;1.00;;;;;;5032781;28;20414;-69
2021/12/11 10:39:34;;;;;;;18.60;9.00;;;4.00;1.00;;;;;;5032651;28;20420;-68
2021/12/11 10:42:00;;;;;;;12.67;7.10;;;4.00;1.00;;;;;;5031052;28;20753;-75
2021/12/11 10:44:30;;;;;;;11.03;5.87;;;4.10;1.00;;;;;;5031389;28;20406;-68
2021/12/11 10:47:03;;;;;;;10.13;7.23;;;4.00;1.00;;;;;;5032706;28;20422;-68
2021/12/11 10:49:29;;;;;;;7.80;5.13;;;3.90;1.00;;;;;;5032253;28;20464;-69
2021/12/11 10:52:08;;;;;;;9.27;5.10;;;3.90;1.00;;;;;;5032053;28;21175;-68
2021/12/11 10:54:34;;;;;;;7.60;4.70;;;3.90;1.00;;;;;;5032756;28;20455;-67
2021/12/11 10:57:00;;;;;;;9.67;6.30;;;4.00;1.00;;;;;;5032374;28;20440;-73
2021/12/11 10:59:29;;;;;;;6.90;6.07;;;4.10;1.00;;;;;;5031487;28;20259;-70
2021/12/11 11:02:33;;;;;;;10.10;7.03;;;4.20;1.00;;;;;;5032376;28;20403;-67
2021/12/11 11:05:13;;;;;;;9.20;6.13;;;4.20;1.00;;;;;;5030116;28;20437;-73
2021/12/11 11:07:40;;;;;;;17.77;8.27;;;4.30;1.00;;;;;;5025179;28;20477;-73
2021/12/11 11:10:12;;;;;;;13.13;7.33;;;4.20;1.00;;;;;;5027512;28;20422;-68
2021/12/11 11:12:39;;;;;;;16.23;7.67;;;4.30;1.00;;;;;;5035565;28;20429;-73
2021/12/11 11:15:06;;;;;;;13.83;8.00;;;4.30;1.00;;;;;;5036486;28;20447;-69
2021/12/11 11:17:33;;;;;;;13.00;8.60;;;4.50;1.00;;;;;;5036198;28;20419;-72
2021/12/11 11:20:04;;;;;;;16.83;9.10;;;4.40;1.00;;;;;;5036562;28;21035;-68
2021/12/11 11:22:33;;;;;;;15.13;8.00;;;4.40;1.00;;;;;;5035411;28;20420;-70
2021/12/11 11:25:07;;;;;;;18.63;9.87;;;4.40;1.00;;;;;;5035881;28;20764;-74
2021/12/11 11:27:33;;;;;;;12.07;7.23;;;4.40;1.00;;;;;;5035967;28;20931;-67
2021/12/11 11:29:59;;;;;;;10.67;7.63;;;4.40;1.00;;;;;;5036478;28;20891;-75
2021/12/11 11:32:33;;;;;;;13.00;8.20;;;4.40;1.00;;;;;;5035186;28;20430;-67
2021/12/11 11:35:09;;;;;;;16.17;8.80;;;4.30;1.00;;;;;;5034863;28;20450;-73
2021/12/11 11:37:35;;;;;;;15.43;8.80;;;4.20;1.00;;;;;;5035844;28;20460;-73
2021/12/11 11:40:05;;;;;;;12.73;8.50;;;4.20;1.00;;;;;;5036290;28;20403;-68
2021/12/11 11:42:32;;;;;;;11.03;8.33;;;4.30;1.00;;;;;;5035204;28;20889;-73
2021/12/11 11:44:59;;;;;;;13.10;8.13;;;4.30;1.00;;;;;;5035424;28;20406;-74
2021/12/11 11:47:25;;;;;;;15.03;9.60;;;4.30;1.00;;;;;;5035722;28;20411;-68
2021/12/11 11:49:56;;;;;;;16.13;10.03;;;4.30;1.00;;;;;;5035947;28;20530;-74
2021/12/11 11:52:22;;;;;;;15.23;8.80;;;4.30;1.00;;;;;;5034781;28;20149;-73
2021/12/11 11:54:54;;;;;;;20.60;10.00;;;4.30;1.00;;;;;;5035914;28;20537;-73
2021/12/11 11:57:27;;;;;;;16.27;8.87;;;4.30;1.00;;;;;;5035924;28;20426;-68
2021/12/11 11:59:56;;;;;;;15.87;9.20;;;4.30;1.00;;;;;;5035544;28;20903;-73
2021/12/11 12:02:26;;;;;;;15.27;9.00;;;4.30;1.00;;;;;;5034277;28;20422;-74
2021/12/11 12:04:54;;;;;;;16.03;9.40;;;4.30;1.00;;;;;;5035725;28;20448;-68
2021/12/11 12:07:26;;;;;;;16.97;9.00;;;4.40;1.00;;;;;;5035458;28;20442;-74
2021/12/11 12:09:53;;;;;;;14.87;9.50;;;4.40;1.00;;;;;;5035719;28;20888;-73
2021/12/11 12:12:22;;;;;;;15.70;9.60;;;4.50;1.00;;;;;;5034350;28;20422;-69
2021/12/11 12:14:49;;;;;;;17.00;8.30;;;4.50;1.00;;;;;;5034219;28;20465;-67
2021/12/11 12:17:19;;;;;;;12.30;8.17;;;4.60;1.00;;;;;;5034744;28;20447;-73
2021/12/11 12:19:45;;;;;;;26.77;9.23;;;4.60;1.00;;;;;;5034994;28;20491;-68
2021/12/11 12:22:13;;;;;;;17.00;9.63;;;4.70;1.00;;;;;;5034213;28;20433;-69
2021/12/11 12:24:42;;;;;;;20.60;10.63;;;4.70;1.00;;;;;;5035386;28;20453;-68
2021/12/11 12:27:10;;;;;;;16.93;10.03;;;4.60;1.00;;;;;;5034917;28;20454;-73
2021/12/11 12:29:38;;;;;;;13.80;9.40;;;4.70;1.00;;;;;;5035247;28;20405;-73
2021/12/11 12:32:08;;;;;;;18.70;11.50;;;4.70;1.00;;;;;;5033978;28;20795;-71
2021/12/11 12:34:34;;;;;;;12.53;9.00;;;4.70;1.00;;;;;;5035184;28;20980;-74
2021/12/11 12:37:00;;;;;;;13.73;8.10;;;4.60;1.00;;;;;;5034229;28;20438;-69
2021/12/11 12:39:36;;;;;;;23.27;9.93;;;4.60;1.00;;;;;;5035101;28;20168;-73
2021/12/11 12:42:26;;;;;;;12.63;8.97;;;4.60;1.00;;;;;;5033817;28;20907;-70
2021/12/11 12:45:04;;;;;;;15.97;8.13;;;4.70;1.00;;;;;;5035008;28;20529;-68
2021/12/11 12:47:35;;;;;;;18.43;8.97;;;4.60;1.00;;;;;;5034747;28;20416;-68
2021/12/11 12:50:10;;;;;;;20.30;8.20;;;4.60;1.00;;;;;;5034829;28;20933;-70
2021/12/11 12:52:42;;;;;;;14.20;9.10;;;4.60;1.00;;;;;;5033756;28;20771;-74
2021/12/11 12:55:22;;;;;;;13.37;9.00;;;4.70;1.00;;;;;;5032602;28;20463;-68
2021/12/11 12:57:51;;;;;;;14.60;7.57;;;4.70;1.00;;;;;;5034277;28;20501;-74
2021/12/11 13:00:20;;;;;;;14.70;8.70;;;4.70;1.00;;;;;;5034581;28;20400;-71
2021/12/11 13:02:48;;;;;;;12.93;8.60;;;4.70;1.00;;;;;;5033488;28;20417;-69
2021/12/11 13:05:18;;;;;;;9.03;7.20;;;4.70;1.00;;;;;;5034551;28;20406;-68
2021/12/11 13:07:45;;;;;;;23.00;9.33;;;4.70;1.00;;;;;;5034299;28;20427;-68
2021/12/11 13:10:20;;;;;;;12.40;8.00;;;4.70;1.00;;;;;;5034419;28;20409;-69
2021/12/11 13:12:48;;;;;;;14.90;7.50;;;4.70;1.00;;;;;;5032850;28;20508;-72
2021/12/11 13:15:29;;;;;;;8.33;6.43;;;4.70;1.00;;;;;;5034199;28;20455;-67
2021/12/11 13:17:57;;;;;;;10.83;7.60;;;4.70;1.00;;;;;;5034176;28;20473;-73
2021/12/11 13:20:34;;;;;;;13.63;8.17;;;4.70;1.00;;;;;;5034215;28;20478;-73
2021/12/11 13:23:01;;;;;;;12.73;7.50;;;4.60;1.00;;;;;;5020162;28;20769;-69
2021/12/11 13:25:40;;;;;;;11.83;6.93;;;4.60;1.00;;;;;;5014304;28;20512;-73
2021/12/11 13:28:07;;;;;;;13.60;9.10;;;4.60;1.00;;;;;;5031128;28;20423;-69